Airfield :
LOGIN :

Register | Disclaimer

   EN    FR    IT 

 










Legend :    VFR   Marginal VFR   IFR   Intensive IFR   Very Intensive IFR
Visi :
Ceiling :
>= 8 km
>= 3000ft
5 to 8 km
1000 to 3000 ft
1500m to 5 km
500 to 1000 ft
800 to 1500m
200 to 500 ft
< 800m
< 200 ft
Symbols :   Thunderstorms  Fog  Heavy snow  Heavy precipitations  Wind > 20 kt
SIGMETs :     Misc.  Thunderstorms  Icing  Turbulence  Mountain Waves  Volcanic Ashes






- Airport Elevation : 2776 ft
- IATA code : VLL


LEVD - Valladolid

CURRENT METAR :
  • 070730Z 07013KT 050V110 CAVOK 16/08 Q1028

EXPIRED METARs :
  • 070700Z 06012KT CAVOK 14/08 Q1028
  • 070630Z 05012KT 020V080 CAVOK 14/09 Q1028
  • 070600Z 07007KT CAVOK 13/09 Q1028
  • 070530Z 06009KT CAVOK 12/09 Q1028
  • 070500Z 06009KT 030V090 CAVOK 11/09 Q1028
  • 070430Z AUTO 06009KT CAVOK 12/09 Q1028

TAF TAF LEVD
Valid from the 07 at 03:00 until the 08 at 03:00 UTC


070200Z 0703/0803 05013KT CAVOK TX29/0715Z TN11/0705Z



MET'MAP, your aeronautical weather chart ! - Copyright ORBIFLY December 2007 - Disclaimer

ORBIFLY MET'MAP TEAM :

Programming & Development : Alexandra Zaïnal
Original concept : Baudouin d'Aumeries
Technical & hardware support : Manuel Goepfert
Assistance : Marc-Olivier Méhu




SOURCES & CREDITS :

   NOAA